Time,TemperatureF,DewpointF,PressureIn,WindDirection,WindDirectionDegrees,WindSpeedMPH,WindSpeedGustMPH,Humidity,HourlyPrecipIn,Conditions,Clouds,dailyrainin,SoftwareType,DateUTC
2013-06-01 00:00:00,75.2,71.1,30.15,ENE,60,2.0,9.0,87,0.00,,,0.00,Wunderground v.1.15,2013-06-01 04:00:00,
2013-06-01 00:05:00,75.2,71.1,30.15,NNE,33,2.0,9.0,87,0.00,,,0.00,Wunderground v.1.15,2013-06-01 04:05:00,
2013-06-01 00:10:00,75.2,71.1,30.15,SE,146,2.0,9.0,87,0.00,,,0.00,Wunderground v.1.15,2013-06-01 04:10:00,
2013-06-01 00:15:00,75.2,71.1,30.15,SSW,207,2.0,9.0,87,0.00,,,0.00,Wunderground v.1.15,2013-06-01 04:15:00,
2013-06-01 00:25:00,75.2,71.1,30.15,SSE,148,2.0,9.0,87,0.00,,,0.00,Wunderground v.1.15,2013-06-01 04:25:00,
2013-06-01 00:30:00,75.1,71.0,30.15,ENE,58,2.0,9.0,87,0.00,,,0.00,Wunderground v.1.15,2013-06-01 04:30:00,
2013-06-01 00:35:00,75.1,71.0,30.15,SW,224,2.0,9.0,87,0.00,,,0.00,Wunderground v.1.15,2013-06-01 04:35:00,
2013-06-01 00:40:00,75.1,71.0,30.15,NNW,340,2.0,2.0,87,0.00,,,0.00,Wunderground v.1.15,2013-06-01 04:40:00,
2013-06-01 00:45:00,75.1,71.0,30.14,NE,53,2.0,9.0,87,0.00,,,0.00,Wunderground v.1.15,2013-06-01 04:45:00,
2013-06-01 00:50:00,75.1,71.0,30.14,NNE,20,2.0,9.0,87,0.00,,,0.00,Wunderground v.1.15,2013-06-01 04:50:00,
2013-06-01 00:55:00,75.0,70.9,30.14,WSW,249,2.0,9.0,87,0.00,,,0.00,Wunderground v.1.15,2013-06-01 04:55:00,
2013-06-01 01:00:00,75.0,70.9,30.14,SSW,200,2.0,2.0,87,0.00,,,0.00,Wunderground v.1.15,2013-06-01 05:00:00,
2013-06-01 01:10:00,75.0,70.9,30.14,NNE,27,2.0,10.0,87,0.00,,,0.00,Wunderground v.1.15,2013-06-01 05:10:00,
2013-06-01 01:15:00,74.9,70.8,30.14,WNW,297,2.0,10.0,87,0.00,,,0.00,Wunderground v.1.15,2013-06-01 05:15:00,
2013-06-01 01:20:00,74.9,70.8,30.14,NNW,327,2.0,10.0,87,0.00,,,0.00,Wunderground v.1.15,2013-06-01 05:20:00,
2013-06-01 01:25:00,74.9,70.8,30.14,SW,214,2.0,10.0,87,0.00,,,0.00,Wunderground v.1.15,2013-06-01 05:25:00,
2013-06-01 01:30:00,74.9,70.8,30.14,WNW,284,2.0,10.0,87,0.00,,,0.00,Wunderground v.1.15,2013-06-01 05:30:00,
2013-06-01 01:35:00,74.8,70.7,30.13,ENE,63,2.0,10.0,87,0.00,,,0.00,Wunderground v.1.15,2013-06-01 05:35:00,
2013-06-01 01:40:00,74.8,70.7,30.13,WSW,240,2.0,10.0,87,0.00,,,0.00,Wunderground v.1.15,2013-06-01 05:40:00,
2013-06-01 01:45:00,74.8,70.7,30.13,WSW,257,2.0,10.0,87,0.00,,,0.00,Wunderground v.1.15,2013-06-01 05:45:00,
2013-06-01 01:50:00,74.7,70.6,30.13,NE,55,2.0,10.0,87,0.00,,,0.00,Wunderground v.1.15,2013-06-01 05:50:00,
2013-06-01 01:55:00,74.8,70.7,30.13,North,351,2.0,10.0,87,0.00,,,0.00,Wunderground v.1.15,2013-06-01 05:55:00,
2013-06-01 02:00:00,74.8,70.7,30.13,SSE,162,2.0,2.0,87,0.00,,,0.00,Wunderground v.1.15,2013-06-01 06:00:00,
2013-06-01 02:05:00,74.7,70.6,30.13,SSW,210,3.0,3.0,87,0.00,,,0.00,Wunderground v.1.15,2013-06-01 06:05:00,
2013-06-01 02:10:00,74.7,70.6,30.12,ESE,112,3.0,8.0,87,0.00,,,0.00,Wunderground v.1.15,2013-06-01 06:10:00,
2013-06-01 02:15:00,74.7,70.6,30.12,WSW,248,3.0,8.0,87,0.00,,,0.00,Wunderground v.1.15,2013-06-01 06:15:00,
2013-06-01 02:20:00,74.7,70.6,30.12,West,274,3.0,3.0,87,0.00,,,0.00,Wunderground v.1.15,2013-06-01 06:20:00,
2013-06-01 02:25:00,74.6,70.5,30.12,WSW,246,2.0,8.0,87,0.00,,,0.00,Wunderground v.1.15,2013-06-01 06:25:00,
2013-06-01 02:30:00,74.5,70.4,30.12,North,356,2.0,8.0,87,0.00,,,0.00,Wunderground v.1.15,2013-06-01 06:30:00,
2013-06-01 02:35:00,74.4,70.3,30.12,NW,308,2.0,8.0,87,0.00,,,0.00,Wunderground v.1.15,2013-06-01 06:35:00,
2013-06-01 02:40:00,74.4,70.3,30.12,NW,311,2.0,2.0,87,0.00,,,0.00,Wunderground v.1.15,2013-06-01 06:40:00,
2013-06-01 02:45:00,74.3,70.2,30.11,WSW,250,2.0,8.0,87,0.00,,,0.00,Wunderground v.1.15,2013-06-01 06:45:00,
2013-06-01 02:50:00,74.1,70.0,30.11,WNW,297,2.0,8.0,87,0.00,,,0.00,Wunderground v.1.15,2013-06-01 06:50:00,
2013-06-01 02:55:00,74.1,70.0,30.11,North,350,1.0,8.0,87,0.00,,,0.00,Wunderground v.1.15,2013-06-01 06:55:00,
2013-06-01 03:00:00,74.0,69.9,30.11,NNW,335,1.0,9.0,87,0.00,,,0.00,Wunderground v.1.15,2013-06-01 07:00:00,
2013-06-01 03:05:00,73.9,69.8,30.12,NNE,23,2.0,9.0,87,0.00,,,0.00,Wunderground v.1.15,2013-06-01 07:05:00,
2013-06-01 03:10:00,73.9,69.8,30.11,NNW,333,2.0,2.0,87,0.00,,,0.00,Wunderground v.1.15,2013-06-01 07:10:00,
2013-06-01 03:15:00,73.8,69.7,30.11,NW,323,1.0,9.0,87,0.00,,,0.00,Wunderground v.1.15,2013-06-01 07:15:00,
2013-06-01 03:20:00,73.8,69.7,30.12,WNW,288,1.0,9.0,87,0.00,,,0.00,Wunderground v.1.15,2013-06-01 07:20:00,
2013-06-01 03:25:00,73.7,69.6,30.12,SSW,204,1.0,9.0,87,0.00,,,0.00,Wunderground v.1.15,2013-06-01 07:25:00,
2013-06-01 03:30:00,73.7,69.6,30.12,WNW,302,1.0,9.0,87,0.00,,,0.00,Wunderground v.1.15,2013-06-01 07:30:00,
2013-06-01 03:35:00,73.6,69.5,30.12,SSW,200,2.0,9.0,87,0.00,,,0.00,Wunderground v.1.15,2013-06-01 07:35:00,
2013-06-01 03:40:00,73.5,69.4,30.12,NNE,27,2.0,2.0,87,0.00,,,0.00,Wunderground v.1.15,2013-06-01 07:40:00,
2013-06-01 03:45:00,73.4,69.3,30.12,West,281,1.0,9.0,87,0.00,,,0.00,Wunderground v.1.15,2013-06-01 07:45:00,
2013-06-01 03:50:00,73.3,69.2,30.12,West,280,1.0,9.0,87,0.00,,,0.00,Wunderground v.1.15,2013-06-01 07:50:00,
2013-06-01 03:55:00,73.2,69.1,30.12,WSW,245,1.0,9.0,87,0.00,,,0.00,Wunderground v.1.15,2013-06-01 07:55:00,
2013-06-01 04:00:00,73.1,69.0,30.11,NNE,23,1.0,4.0,87,0.00,,,0.00,Wunderground v.1.15,2013-06-01 08:00:00,
2013-06-01 04:05:00,73.1,69.3,30.11,NW,321,1.0,4.0,88,0.00,,,0.00,Wunderground v.1.15,2013-06-01 08:05:00,
2013-06-01 04:10:00,73.1,69.3,30.11,WSW,240,1.0,4.0,88,0.00,,,0.00,Wunderground v.1.15,2013-06-01 08:10:00,
2013-06-01 04:15:00,73.1,69.3,30.11,WSW,257,0.0,4.0,88,0.00,,,0.00,Wunderground v.1.15,2013-06-01 08:15:00,
2013-06-01 04:20:00,73.1,69.3,30.11,West,271,1.0,1.0,88,0.00,,,0.00,Wunderground v.1.15,2013-06-01 08:20:00,
2013-06-01 04:25:00,73.1,69.3,30.12,WNW,292,0.0,4.0,88,0.00,,,0.00,Wunderground v.1.15,2013-06-01 08:25:00,
2013-06-01 04:30:00,73.0,69.2,30.12,WSW,253,0.0,4.0,88,0.00,,,0.00,Wunderground v.1.15,2013-06-01 08:30:00,
2013-06-01 04:35:00,73.0,69.2,30.12,SSW,212,0.0,4.0,88,0.00,,,0.00,Wunderground v.1.15,2013-06-01 08:35:00,
2013-06-01 04:40:00,72.9,69.1,30.12,South,181,0.0,4.0,88,0.00,,,0.00,Wunderground v.1.15,2013-06-01 08:40:00,
2013-06-01 04:45:00,72.8,69.0,30.12,West,277,0.0,4.0,88,0.00,,,0.00,Wunderground v.1.15,2013-06-01 08:45:00,
2013-06-01 04:50:00,72.8,69.0,30.12,West,278,0.0,4.0,88,0.00,,,0.00,Wunderground v.1.15,2013-06-01 08:50:00,
2013-06-01 04:55:00,72.8,69.0,30.13,SW,227,0.0,4.0,88,0.00,,,0.00,Wunderground v.1.15,2013-06-01 08:55:00,
2013-06-01 05:00:00,72.7,68.9,30.13,WNW,288,0.0,3.0,88,0.00,,,0.00,Wunderground v.1.15,2013-06-01 09:00:00,
2013-06-01 05:05:00,72.7,68.9,30.13,WNW,283,0.0,3.0,88,0.00,,,0.00,Wunderground v.1.15,2013-06-01 09:05:00,
2013-06-01 05:10:00,72.6,68.8,30.13,SW,218,0.0,3.0,88,0.00,,,0.00,Wunderground v.1.15,2013-06-01 09:10:00,
2013-06-01 05:15:00,72.5,68.7,30.13,WNW,288,0.0,3.0,88,0.00,,,0.00,Wunderground v.1.15,2013-06-01 09:15:00,
2013-06-01 05:25:00,72.4,68.6,30.14,SW,225,0.0,3.0,88,0.00,,,0.00,Wunderground v.1.15,2013-06-01 09:25:00,
2013-06-01 05:30:00,72.5,68.7,30.14,WNW,294,1.0,3.0,88,0.00,,,0.00,Wunderground v.1.15,2013-06-01 09:30:00,
2013-06-01 05:35:00,72.5,68.7,30.14,West,260,1.0,3.0,88,0.00,,,0.00,Wunderground v.1.15,2013-06-01 09:35:00,
2013-06-01 05:40:00,72.6,68.8,30.14,WNW,285,1.0,1.0,88,0.00,,,0.00,Wunderground v.1.15,2013-06-01 09:40:00,
2013-06-01 05:45:00,72.6,68.8,30.14,WSW,255,1.0,3.0,88,0.00,,,0.00,Wunderground v.1.15,2013-06-01 09:45:00,
2013-06-01 05:50:00,72.6,68.8,30.14,SW,236,1.0,3.0,88,0.00,,,0.00,Wunderground v.1.15,2013-06-01 09:50:00,
2013-06-01 05:55:00,72.6,68.8,30.15,West,263,1.0,3.0,88,0.00,,,0.00,Wunderground v.1.15,2013-06-01 09:55:00,
2013-06-01 06:00:00,72.7,68.9,30.15,WSW,246,1.0,2.0,88,0.00,,,0.00,Wunderground v.1.15,2013-06-01 10:00:00,
2013-06-01 06:05:00,72.7,68.9,30.15,WNW,291,0.0,2.0,88,0.00,,,0.00,Wunderground v.1.15,2013-06-01 10:05:00,
2013-06-01 06:10:00,72.7,68.9,30.15,West,276,1.0,2.0,88,0.00,,,0.00,Wunderground v.1.15,2013-06-01 10:10:00,
2013-06-01 06:15:00,72.8,69.0,30.15,NW,321,1.0,2.0,88,0.00,,,0.00,Wunderground v.1.15,2013-06-01 10:15:00,
2013-06-01 06:20:00,72.9,69.1,30.15,SW,234,1.0,2.0,88,0.00,,,0.00,Wunderground v.1.15,2013-06-01 10:20:00,
2013-06-01 06:25:00,73.0,69.2,30.15,WSW,243,1.0,2.0,88,0.00,,,0.00,Wunderground v.1.15,2013-06-01 10:25:00,
2013-06-01 06:30:00,73.1,69.3,30.15,West,281,1.0,1.0,88,0.00,,,0.00,Wunderground v.1.15,2013-06-01 10:30:00,
2013-06-01 06:35:00,73.3,69.5,30.15,West,281,0.0,2.0,88,0.00,,,0.00,Wunderground v.1.15,2013-06-01 10:35:00,
2013-06-01 06:40:00,73.4,69.6,30.15,West,276,0.0,2.0,88,0.00,,,0.00,Wunderground v.1.15,2013-06-01 10:40:00,
2013-06-01 06:45:00,73.7,69.9,30.15,WSW,243,0.0,2.0,88,0.00,,,0.00,Wunderground v.1.15,2013-06-01 10:45:00,
2013-06-01 06:50:00,73.9,70.1,30.15,WSW,240,0.0,2.0,88,0.00,,,0.00,Wunderground v.1.15,2013-06-01 10:50:00,
2013-06-01 06:55:00,74.1,70.3,30.16,West,278,0.0,2.0,88,0.00,,,0.00,Wunderground v.1.15,2013-06-01 10:55:00,
2013-06-01 07:00:00,74.4,70.3,30.16,West,263,0.0,2.0,87,0.00,,,0.00,Wunderground v.1.15,2013-06-01 11:00:00,
2013-06-01 07:05:00,74.7,70.6,30.16,West,274,0.0,2.0,87,0.00,,,0.00,Wunderground v.1.15,2013-06-01 11:05:00,
2013-06-01 07:10:00,74.8,70.7,30.16,WNW,294,1.0,1.0,87,0.00,,,0.00,Wunderground v.1.15,2013-06-01 11:10:00,
2013-06-01 07:15:00,75.1,71.0,30.16,West,260,1.0,2.0,87,0.00,,,0.00,Wunderground v.1.15,2013-06-01 11:15:00,
2013-06-01 07:20:00,75.5,71.4,30.16,WSW,252,0.0,2.0,87,0.00,,,0.00,Wunderground v.1.15,2013-06-01 11:20:00,
2013-06-01 07:25:00,75.8,71.3,30.16,West,264,0.0,2.0,86,0.00,,,0.00,Wunderground v.1.15,2013-06-01 11:25:00,
2013-06-01 07:30:00,76.3,71.8,30.16,SW,229,0.0,2.0,86,0.00,,,0.00,Wunderground v.1.15,2013-06-01 11:30:00,
2013-06-01 07:35:00,76.6,71.7,30.16,NNW,332,1.0,2.0,85,0.00,,,0.00,Wunderground v.1.15,2013-06-01 11:35:00,
2013-06-01 07:40:00,76.6,71.7,30.16,SW,236,1.0,1.0,85,0.00,,,0.00,Wunderground v.1.15,2013-06-01 11:40:00,
2013-06-01 07:45:00,77.0,71.8,30.16,SE,126,1.0,2.0,84,0.00,,,0.00,Wunderground v.1.15,2013-06-01 11:45:00,
2013-06-01 07:50:00,77.1,71.9,30.16,West,262,1.0,4.0,84,0.00,,,0.00,Wunderground v.1.15,2013-06-01 11:50:00,
2013-06-01 08:00:00,76.6,71.0,30.17,WNW,291,4.0,4.0,83,0.00,,,0.00,Wunderground v.1.15,2013-06-01 12:00:00,
2013-06-01 08:10:00,76.9,71.3,30.16,WNW,285,4.0,6.0,83,0.00,,,0.00,Wunderground v.1.15,2013-06-01 12:10:00,
2013-06-01 08:15:00,77.1,71.5,30.16,WNW,283,3.0,6.0,83,0.00,,,0.00,Wunderground v.1.15,2013-06-01 12:15:00,
2013-06-01 08:20:00,76.8,71.2,30.16,NW,319,4.0,4.0,83,0.00,,,0.00,Wunderground v.1.15,2013-06-01 12:20:00,
2013-06-01 08:25:00,77.2,72.0,30.16,WSW,249,4.0,4.0,84,0.00,,,0.00,Wunderground v.1.15,2013-06-01 12:25:00,
2013-06-01 08:30:00,77.9,72.0,30.17,West,264,2.0,2.0,82,0.00,,,0.00,Wunderground v.1.15,2013-06-01 12:30:00,
2013-06-01 08:35:00,78.7,72.4,30.17,WSW,252,1.0,4.0,81,0.00,,,0.00,Wunderground v.1.15,2013-06-01 12:35:00,
2013-06-01 08:40:00,79.3,73.0,30.17,SW,215,1.0,4.0,81,0.00,,,0.00,Wunderground v.1.15,2013-06-01 12:40:00,
2013-06-01 08:45:00,79.6,72.9,30.17,ESE,114,1.0,4.0,80,0.00,,,0.00,Wunderground v.1.15,2013-06-01 12:45:00,
2013-06-01 08:50:00,79.6,72.9,30.16,SW,232,1.0,4.0,80,0.00,,,0.00,Wunderground v.1.15,2013-06-01 12:50:00,
2013-06-01 08:55:00,79.6,72.9,30.17,West,279,2.0,4.0,80,0.00,,,0.00,Wunderground v.1.15,2013-06-01 12:55:00,
2013-06-01 09:00:00,80.0,73.3,30.17,SE,139,1.0,9.0,80,0.00,,,0.00,Wunderground v.1.15,2013-06-01 13:00:00,
2013-06-01 09:05:00,80.1,73.0,30.16,WNW,287,1.0,9.0,79,0.00,,,0.00,Wunderground v.1.15,2013-06-01 13:05:00,
2013-06-01 09:10:00,80.1,73.0,30.16,SW,224,1.0,9.0,79,0.00,,,0.00,Wunderground v.1.15,2013-06-01 13:10:00,
2013-06-01 09:15:00,80.2,73.1,30.16,West,259,1.0,9.0,79,0.00,,,0.00,Wunderground v.1.15,2013-06-01 13:15:00,
2013-06-01 09:20:00,80.3,73.2,30.16,ESE,114,1.0,9.0,79,0.00,,,0.00,Wunderground v.1.15,2013-06-01 13:20:00,
2013-06-01 09:25:00,80.4,72.9,30.16,NE,53,1.0,9.0,78,0.00,,,0.00,Wunderground v.1.15,2013-06-01 13:25:00,
2013-06-01 09:30:00,80.4,72.9,30.16,NNE,23,1.0,9.0,78,0.00,,,0.00,Wunderground v.1.15,2013-06-01 13:30:00,
2013-06-01 09:35:00,80.6,73.5,30.15,SW,219,1.0,9.0,79,0.00,,,0.00,Wunderground v.1.15,2013-06-01 13:35:00,
2013-06-01 09:40:00,81.2,73.7,30.15,ENE,63,1.0,9.0,78,0.00,,,0.00,Wunderground v.1.15,2013-06-01 13:40:00,
2013-06-01 09:45:00,81.5,73.6,30.15,NW,316,1.0,9.0,77,0.00,,,0.00,Wunderground v.1.15,2013-06-01 13:45:00,
2013-06-01 09:50:00,81.1,72.8,30.15,SSW,204,3.0,9.0,76,0.00,,,0.00,Wunderground v.1.15,2013-06-01 13:50:00,
2013-06-01 09:55:00,80.5,72.6,30.15,ESE,108,4.0,9.0,77,0.00,,,0.00,Wunderground v.1.15,2013-06-01 13:55:00,
2013-06-01 10:00:00,80.3,72.8,30.15,WSW,245,5.0,5.0,78,0.00,,,0.00,Wunderground v.1.15,2013-06-01 14:00:00,
2013-06-01 10:05:00,80.1,73.0,30.15,SSW,197,4.0,5.0,79,0.00,,,0.00,Wunderground v.1.15,2013-06-01 14:05:00,
2013-06-01 10:10:00,80.5,73.4,30.15,NNE,13,3.0,3.0,79,0.00,,,0.00,Wunderground v.1.15,2013-06-01 14:10:00,
2013-06-01 10:15:00,80.8,73.3,30.15,SSW,212,2.0,5.0,78,0.00,,,0.00,Wunderground v.1.15,2013-06-01 14:15:00,
2013-06-01 10:20:00,80.8,72.5,30.15,SSW,198,3.0,5.0,76,0.00,,,0.00,Wunderground v.1.15,2013-06-01 14:20:00,
2013-06-01 10:25:00,80.7,72.8,30.14,SSW,197,4.0,5.0,77,0.00,,,0.00,Wunderground v.1.15,2013-06-01 14:25:00,
2013-06-01 10:30:00,80.1,72.6,30.14,SSW,203,5.0,6.0,78,0.00,,,0.00,Wunderground v.1.15,2013-06-01 14:30:00,
2013-06-01 10:35:00,79.8,71.9,30.14,SSW,213,5.0,6.0,77,0.00,,,0.00,Wunderground v.1.15,2013-06-01 14:35:00,
2013-06-01 10:40:00,79.4,71.9,30.14,SSW,196,5.0,5.0,78,0.00,,,0.00,Wunderground v.1.15,2013-06-01 14:40:00,
2013-06-01 10:45:00,79.5,72.4,30.14,South,188,5.0,5.0,79,0.00,,,0.00,Wunderground v.1.15,2013-06-01 14:45:00,
2013-06-01 10:50:00,79.5,72.4,30.14,SW,214,5.0,6.0,79,0.00,,,0.00,Wunderground v.1.15,2013-06-01 14:50:00,
2013-06-01 10:55:00,79.6,72.5,30.14,SSW,206,6.0,9.0,79,0.00,,,0.00,Wunderground v.1.15,2013-06-01 14:55:00,
2013-06-01 11:00:00,79.9,72.4,30.14,WSW,255,6.0,6.0,78,0.00,,,0.00,Wunderground v.1.15,2013-06-01 15:00:00,
2013-06-01 11:10:00,80.2,72.7,30.14,WNW,293,6.0,8.0,78,0.00,,,0.00,Wunderground v.1.15,2013-06-01 15:10:00,
2013-06-01 11:15:00,80.1,72.2,30.14,SE,143,7.0,9.0,77,0.00,,,0.00,Wunderground v.1.15,2013-06-01 15:15:00,
2013-06-01 11:20:00,80.2,72.3,30.14,WNW,293,7.0,7.0,77,0.00,,,0.00,Wunderground v.1.15,2013-06-01 15:20:00,
2013-06-01 11:25:00,80.2,72.3,30.14,SW,228,7.0,8.0,77,0.00,,,0.00,Wunderground v.1.15,2013-06-01 15:25:00,
2013-06-01 11:30:00,80.0,72.5,30.14,SSW,210,7.0,11.0,78,0.00,,,0.00,Wunderground v.1.15,2013-06-01 15:30:00,
2013-06-01 11:35:00,79.7,72.2,30.14,SSW,211,8.0,11.0,78,0.00,,,0.00,Wunderground v.1.15,2013-06-01 15:35:00,
2013-06-01 11:45:00,79.6,72.1,30.14,SSW,208,7.0,9.0,78,0.00,,,0.00,Wunderground v.1.15,2013-06-01 15:45:00,
2013-06-01 11:50:00,79.7,72.2,30.13,SSW,192,7.0,8.0,78,0.00,,,0.00,Wunderground v.1.15,2013-06-01 15:50:00,
2013-06-01 11:55:00,79.8,72.3,30.13,SW,219,8.0,9.0,78,0.00,,,0.00,Wunderground v.1.15,2013-06-01 15:55:00,
2013-06-01 12:00:00,79.4,71.9,30.13,SSW,203,9.0,9.0,78,0.00,,,0.00,Wunderground v.1.15,2013-06-01 16:00:00,
2013-06-01 12:05:00,78.9,71.8,30.13,SW,234,9.0,13.0,79,0.00,,,0.00,Wunderground v.1.15,2013-06-01 16:05:00,
2013-06-01 12:10:00,79.1,72.0,30.13,SW,228,9.0,13.0,79,0.00,,,0.00,Wunderground v.1.15,2013-06-01 16:10:00,
2013-06-01 12:15:00,79.1,72.0,30.13,WSW,238,8.0,13.0,79,0.00,,,0.00,Wunderground v.1.15,2013-06-01 16:15:00,
2013-06-01 12:20:00,79.2,72.1,30.13,SSW,193,9.0,13.0,79,0.00,,,0.00,Wunderground v.1.15,2013-06-01 16:20:00,
2013-06-01 12:25:00,78.9,72.2,30.13,SSW,203,10.0,13.0,80,0.00,,,0.00,Wunderground v.1.15,2013-06-01 16:25:00,
2013-06-01 12:30:00,78.4,72.1,30.13,SSE,156,11.0,11.0,81,0.00,,,0.00,Wunderground v.1.15,2013-06-01 16:30:00,
2013-06-01 12:35:00,78.4,72.1,30.13,South,183,11.0,13.0,81,0.00,,,0.00,Wunderground v.1.15,2013-06-01 16:35:00,
2013-06-01 12:40:00,78.1,71.8,30.13,SSW,207,11.0,13.0,81,0.00,,,0.00,Wunderground v.1.15,2013-06-01 16:40:00,
2013-06-01 12:45:00,78.1,71.8,30.13,SSW,198,11.0,13.0,81,0.00,,,0.00,Wunderground v.1.15,2013-06-01 16:45:00,
2013-06-01 12:50:00,78.1,71.8,30.13,SSW,204,11.0,11.0,81,0.00,,,0.00,Wunderground v.1.15,2013-06-01 16:50:00,
2013-06-01 12:55:00,78.5,72.5,30.13,SSE,148,10.0,13.0,82,0.00,,,0.00,Wunderground v.1.15,2013-06-01 16:55:00,
2013-06-01 13:00:00,78.8,72.5,30.13,East,101,9.0,9.0,81,0.00,,,0.00,Wunderground v.1.15,2013-06-01 17:00:00,
2013-06-01 13:05:00,79.4,72.7,30.12,SW,222,8.0,16.0,80,0.00,,,0.00,Wunderground v.1.15,2013-06-01 17:05:00,
2013-06-01 13:10:00,79.3,72.6,30.12,WSW,248,8.0,16.0,80,0.00,,,0.00,Wunderground v.1.15,2013-06-01 17:10:00,
2013-06-01 13:15:00,79.6,72.5,30.12,SSW,200,9.0,16.0,79,0.00,,,0.00,Wunderground v.1.15,2013-06-01 17:15:00,
2013-06-01 13:20:00,79.7,72.6,30.12,South,172,9.0,16.0,79,0.00,,,0.00,Wunderground v.1.15,2013-06-01 17:20:00,
2013-06-01 13:25:00,79.4,72.3,30.12,SSW,211,10.0,16.0,79,0.00,,,0.00,Wunderground v.1.15,2013-06-01 17:25:00,
2013-06-01 13:30:00,79.6,72.5,30.12,SE,139,10.0,10.0,79,0.00,,,0.00,Wunderground v.1.15,2013-06-01 17:30:00,
2013-06-01 13:35:00,79.8,72.7,30.11,WSW,239,9.0,14.0,79,0.00,,,0.00,Wunderground v.1.15,2013-06-01 17:35:00,
2013-06-01 13:40:00,79.7,72.2,30.11,SW,236,10.0,10.0,78,0.00,,,0.00,Wunderground v.1.15,2013-06-01 17:40:00,
2013-06-01 13:45:00,79.9,72.4,30.11,SW,225,9.0,12.0,78,0.00,,,0.00,Wunderground v.1.15,2013-06-01 17:45:00,
2013-06-01 13:50:00,79.4,72.3,30.11,West,267,10.0,16.0,79,0.00,,,0.00,Wunderground v.1.15,2013-06-01 17:50:00,
2013-06-01 13:55:00,79.5,72.4,30.11,SW,224,10.0,16.0,79,0.00,,,0.00,Wunderground v.1.15,2013-06-01 17:55:00,
2013-06-01 14:00:00,79.5,72.4,30.11,SW,229,10.0,10.0,79,0.00,,,0.00,Wunderground v.1.15,2013-06-01 18:00:00,
2013-06-01 14:05:00,79.8,72.7,30.11,South,179,9.0,15.0,79,0.00,,,0.00,Wunderground v.1.15,2013-06-01 18:05:00,
2013-06-01 14:10:00,79.9,72.4,30.11,SW,218,9.0,9.0,78,0.00,,,0.00,Wunderground v.1.15,2013-06-01 18:10:00,
2013-06-01 14:15:00,80.2,72.7,30.11,SSE,149,7.0,15.0,78,0.00,,,0.00,Wunderground v.1.15,2013-06-01 18:15:00,
2013-06-01 14:20:00,80.5,73.0,30.11,WSW,245,6.0,6.0,78,0.00,,,0.00,Wunderground v.1.15,2013-06-01 18:20:00,
2013-06-01 14:25:00,80.6,73.1,30.11,SW,226,6.0,9.0,78,0.00,,,0.00,Wunderground v.1.15,2013-06-01 18:25:00,
2013-06-01 14:30:00,80.7,72.8,30.11,ENE,59,6.0,6.0,77,0.00,,,0.00,Wunderground v.1.15,2013-06-01 18:30:00,
2013-06-01 14:35:00,80.9,73.0,30.11,ENE,65,5.0,15.0,77,0.00,,,0.00,Wunderground v.1.15,2013-06-01 18:35:00,
2013-06-01 14:40:00,81.1,72.8,30.11,South,183,5.0,5.0,76,0.00,,,0.00,Wunderground v.1.15,2013-06-01 18:40:00,
2013-06-01 14:45:00,81.2,72.9,30.11,East,94,4.0,15.0,76,0.00,,,0.00,Wunderground v.1.15,2013-06-01 18:45:00,
2013-06-01 14:50:00,81.4,73.1,30.11,WNW,293,4.0,4.0,76,0.00,,,0.00,Wunderground v.1.15,2013-06-01 18:50:00,
2013-06-01 14:55:00,81.4,73.1,30.11,SW,217,3.0,15.0,76,0.00,,,0.00,Wunderground v.1.15,2013-06-01 18:55:00,
2013-06-01 15:00:00,81.6,73.3,30.11,South,175,3.0,3.0,76,0.00,,,0.00,Wunderground v.1.15,2013-06-01 19:00:00,
2013-06-01 15:05:00,81.6,73.3,30.11,NE,44,4.0,4.0,76,0.00,,,0.00,Wunderground v.1.15,2013-06-01 19:05:00,
2013-06-01 15:10:00,81.5,73.2,30.10,ENE,61,4.0,15.0,76,0.00,,,0.00,Wunderground v.1.15,2013-06-01 19:10:00,
2013-06-01 15:15:00,81.5,73.6,30.10,WNW,287,4.0,15.0,77,0.00,,,0.00,Wunderground v.1.15,2013-06-01 19:15:00,
2013-06-01 15:20:00,81.6,73.7,30.10,NE,38,4.0,4.0,77,0.00,,,0.00,Wunderground v.1.15,2013-06-01 19:20:00,
2013-06-01 15:25:00,81.7,73.4,30.10,West,259,4.0,15.0,76,0.00,,,0.00,Wunderground v.1.15,2013-06-01 19:25:00,
2013-06-01 15:30:00,81.7,73.4,30.10,ENE,59,4.0,15.0,76,0.00,,,0.00,Wunderground v.1.15,2013-06-01 19:30:00,
2013-06-01 15:35:00,81.5,72.8,30.10,NNE,15,4.0,15.0,75,0.00,,,0.00,Wunderground v.1.15,2013-06-01 19:35:00,
2013-06-01 15:40:00,81.3,73.0,30.10,SSE,153,4.0,4.0,76,0.00,,,0.00,Wunderground v.1.15,2013-06-01 19:40:00,
2013-06-01 15:45:00,81.3,73.0,30.10,NE,43,4.0,10.0,76,0.00,,,0.00,Wunderground v.1.15,2013-06-01 19:45:00,
2013-06-01 15:50:00,81.2,73.3,30.10,NE,39,4.0,15.0,77,0.00,,,0.00,Wunderground v.1.15,2013-06-01 19:50:00,
2013-06-01 15:55:00,81.2,72.5,30.10,SE,139,5.0,15.0,75,0.00,,,0.00,Wunderground v.1.15,2013-06-01 19:55:00,
2013-06-01 16:00:00,81.2,72.5,30.10,West,270,5.0,12.0,75,0.00,,,0.00,Wunderground v.1.15,2013-06-01 20:00:00,
2013-06-01 16:05:00,81.1,72.8,30.10,NW,321,5.0,12.0,76,0.00,,,0.00,Wunderground v.1.15,2013-06-01 20:05:00,
2013-06-01 16:10:00,81.0,72.3,30.10,SSW,203,5.0,5.0,75,0.00,,,0.00,Wunderground v.1.15,2013-06-01 20:10:00,
2013-06-01 16:15:00,81.0,72.7,30.09,ESE,117,5.0,12.0,76,0.00,,,0.00,Wunderground v.1.15,2013-06-01 20:15:00,
2013-06-01 16:20:00,81.0,72.7,30.09,NNE,32,5.0,5.0,76,0.00,,,0.00,Wunderground v.1.15,2013-06-01 20:20:00,
2013-06-01 16:25:00,81.0,72.3,30.09,SE,126,5.0,12.0,75,0.00,,,0.00,Wunderground v.1.15,2013-06-01 20:25:00,
2013-06-01 16:30:00,81.0,72.3,30.09,North,5,5.0,12.0,75,0.00,,,0.00,Wunderground v.1.15,2013-06-01 20:30:00,
2013-06-01 16:35:00,80.7,72.0,30.09,WNW,298,5.0,12.0,75,0.00,,,0.00,Wunderground v.1.15,2013-06-01 20:35:00,
2013-06-01 16:40:00,80.8,72.5,30.09,SSW,203,5.0,5.0,76,0.00,,,0.00,Wunderground v.1.15,2013-06-01 20:40:00,
2013-06-01 16:45:00,80.7,72.4,30.09,East,98,5.0,6.0,76,0.00,,,0.00,Wunderground v.1.15,2013-06-01 20:45:00,
2013-06-01 16:55:00,80.4,71.7,30.08,East,96,5.0,12.0,75,0.00,,,0.00,Wunderground v.1.15,2013-06-01 20:55:00,
2013-06-01 17:00:00,80.2,71.9,30.08,SW,218,6.0,14.0,76,0.00,,,0.00,Wunderground v.1.15,2013-06-01 21:00:00,
2013-06-01 17:05:00,80.1,71.8,30.08,East,101,6.0,14.0,76,0.00,,,0.00,Wunderground v.1.15,2013-06-01 21:05:00,
2013-06-01 17:10:00,80.1,72.2,30.08,ENE,77,6.0,6.0,77,0.00,,,0.00,Wunderground v.1.15,2013-06-01 21:10:00,
2013-06-01 17:15:00,80.0,72.1,30.08,ENE,63,5.0,14.0,77,0.00,,,0.00,Wunderground v.1.15,2013-06-01 21:15:00,
2013-06-01 17:20:00,80.0,71.8,30.08,ENE,72,5.0,14.0,76,0.00,,,0.00,Wunderground v.1.15,2013-06-01 21:20:00,
2013-06-01 17:25:00,79.9,71.3,30.08,ESE,108,6.0,14.0,75,0.00,,,0.00,Wunderground v.1.15,2013-06-01 21:25:00,
2013-06-01 17:30:00,79.9,71.3,30.08,East,91,6.0,6.0,75,0.00,,,0.00,Wunderground v.1.15,2013-06-01 21:30:00,
2013-06-01 17:35:00,79.9,72.0,30.07,East,100,6.0,14.0,77,0.00,,,0.00,Wunderground v.1.15,2013-06-01 21:35:00,
2013-06-01 17:40:00,79.9,71.7,30.08,WSW,240,5.0,5.0,76,0.00,,,0.00,Wunderground v.1.15,2013-06-01 21:40:00,
2013-06-01 17:45:00,80.1,71.8,30.08,WNW,284,5.0,6.0,76,0.00,,,0.00,Wunderground v.1.15,2013-06-01 21:45:00,
2013-06-01 17:50:00,80.0,71.4,30.08,NNW,335,5.0,5.0,75,0.00,,,0.00,Wunderground v.1.15,2013-06-01 21:50:00,
2013-06-01 17:55:00,80.1,71.8,30.08,West,260,5.0,14.0,76,0.00,,,0.00,Wunderground v.1.15,2013-06-01 21:55:00,
2013-06-01 18:00:00,80.1,71.5,30.08,SSE,149,4.0,13.0,75,0.00,,,0.00,Wunderground v.1.15,2013-06-01 22:00:00,
2013-06-01 18:05:00,80.1,71.8,30.08,WSW,238,4.0,13.0,76,0.00,,,0.00,Wunderground v.1.15,2013-06-01 22:05:00,
2013-06-01 18:10:00,80.1,72.2,30.08,NNE,25,4.0,13.0,77,0.00,,,0.00,Wunderground v.1.15,2013-06-01 22:10:00,
2013-06-01 18:15:00,79.9,71.7,30.08,SSE,163,4.0,13.0,76,0.00,,,0.00,Wunderground v.1.15,2013-06-01 22:15:00,
2013-06-01 18:20:00,79.9,71.7,30.08,NE,48,4.0,4.0,76,0.00,,,0.00,Wunderground v.1.15,2013-06-01 22:20:00,
2013-06-01 18:25:00,80.0,72.1,30.07,WNW,287,4.0,5.0,77,0.00,,,0.00,Wunderground v.1.15,2013-06-01 22:25:00,
2013-06-01 18:30:00,79.9,72.0,30.07,ENE,69,4.0,13.0,77,0.00,,,0.00,Wunderground v.1.15,2013-06-01 22:30:00,
2013-06-01 18:35:00,79.8,71.9,30.07,NW,319,4.0,13.0,77,0.00,,,0.00,Wunderground v.1.15,2013-06-01 22:35:00,
2013-06-01 18:40:00,79.6,71.8,30.07,West,280,4.0,13.0,77,0.00,,,0.00,Wunderground v.1.15,2013-06-01 22:40:00,
2013-06-01 18:45:00,79.5,72.0,30.08,ENE,66,4.0,13.0,78,0.00,,,0.00,Wunderground v.1.15,2013-06-01 22:45:00,
2013-06-01 18:50:00,79.6,72.1,30.07,SW,233,4.0,13.0,78,0.00,,,0.00,Wunderground v.1.15,2013-06-01 22:50:00,
2013-06-01 18:55:00,79.6,72.1,30.08,NNW,340,4.0,13.0,78,0.00,,,0.00,Wunderground v.1.15,2013-06-01 22:55:00,
2013-06-01 19:00:00,79.5,72.0,30.08,West,272,4.0,11.0,78,0.00,,,0.00,Wunderground v.1.15,2013-06-01 23:00:00,
2013-06-01 19:10:00,79.0,71.9,30.08,East,84,5.0,5.0,79,0.00,,,0.00,Wunderground v.1.15,2013-06-01 23:10:00,
2013-06-01 19:15:00,78.9,71.8,30.08,WNW,297,5.0,11.0,79,0.00,,,0.00,Wunderground v.1.15,2013-06-01 23:15:00,
2013-06-01 19:20:00,78.9,71.8,30.08,SW,233,4.0,11.0,79,0.00,,,0.00,Wunderground v.1.15,2013-06-01 23:20:00,
2013-06-01 19:25:00,78.8,71.7,30.08,NW,310,4.0,11.0,79,0.00,,,0.00,Wunderground v.1.15,2013-06-01 23:25:00,
2013-06-01 19:30:00,78.6,71.5,30.08,South,172,4.0,4.0,79,0.00,,,0.00,Wunderground v.1.15,2013-06-01 23:30:00,
2013-06-01 19:35:00,78.4,71.3,30.08,North,351,4.0,5.0,79,0.00,,,0.00,Wunderground v.1.15,2013-06-01 23:35:00,
2013-06-01 19:40:00,78.2,71.5,30.08,North,358,4.0,4.0,80,0.00,,,0.00,Wunderground v.1.15,2013-06-01 23:40:00,
2013-06-01 19:45:00,78.0,71.7,30.08,WNW,293,3.0,11.0,81,0.00,,,0.00,Wunderground v.1.15,2013-06-01 23:45:00,
2013-06-01 19:50:00,77.8,71.5,30.08,ENE,66,3.0,11.0,81,0.00,,,0.00,Wunderground v.1.15,2013-06-01 23:50:00,
2013-06-01 19:55:00,77.6,71.3,30.08,NE,55,3.0,11.0,81,0.00,,,0.00,Wunderground v.1.15,2013-06-01 23:55:00,
2013-06-01 20:00:00,77.2,71.3,30.08,NNW,342,3.0,11.0,82,0.00,,,0.00,Wunderground v.1.15,2013-06-02 00:00:00,
2013-06-01 20:10:00,76.7,71.1,30.08,West,264,3.0,11.0,83,0.00,,,0.00,Wunderground v.1.15,2013-06-02 00:10:00,
2013-06-01 20:15:00,76.5,70.9,30.08,WSW,257,3.0,11.0,83,0.00,,,0.00,Wunderground v.1.15,2013-06-02 00:15:00,
2013-06-01 20:20:00,76.2,70.7,30.08,SW,226,3.0,11.0,83,0.00,,,0.00,Wunderground v.1.15,2013-06-02 00:20:00,
2013-06-01 20:25:00,76.0,70.8,30.08,West,281,3.0,11.0,84,0.00,,,0.00,Wunderground v.1.15,2013-06-02 00:25:00,
2013-06-01 20:30:00,75.9,70.7,30.08,North,5,2.0,11.0,84,0.00,,,0.00,Wunderground v.1.15,2013-06-02 00:30:00,
2013-06-01 20:35:00,75.7,70.5,30.08,NE,38,2.0,11.0,84,0.00,,,0.00,Wunderground v.1.15,2013-06-02 00:35:00,
2013-06-01 20:40:00,75.6,70.8,30.08,East,84,3.0,3.0,85,0.00,,,0.00,Wunderground v.1.15,2013-06-02 00:40:00,
2013-06-01 20:45:00,75.5,70.7,30.08,NE,48,3.0,11.0,85,0.00,,,0.00,Wunderground v.1.15,2013-06-02 00:45:00,
2013-06-01 20:50:00,75.3,70.5,30.08,West,276,2.0,2.0,85,0.00,,,0.00,Wunderground v.1.15,2013-06-02 00:50:00,
2013-06-01 21:00:00,75.2,70.4,30.08,ENE,57,3.0,3.0,85,0.00,,,0.00,Wunderground v.1.15,2013-06-02 01:00:00,
2013-06-01 21:05:00,75.2,70.4,30.08,SE,124,3.0,9.0,85,0.00,,,0.00,Wunderground v.1.15,2013-06-02 01:05:00,
2013-06-01 21:10:00,75.2,70.4,30.08,NNE,27,3.0,9.0,85,0.00,,,0.00,Wunderground v.1.15,2013-06-02 01:10:00,
2013-06-01 21:15:00,75.2,70.4,30.08,West,259,3.0,9.0,85,0.00,,,0.00,Wunderground v.1.15,2013-06-02 01:15:00,
2013-06-01 21:20:00,75.1,70.3,30.08,WNW,293,3.0,3.0,85,0.00,,,0.00,Wunderground v.1.15,2013-06-02 01:20:00,
2013-06-01 21:25:00,75.2,70.4,30.08,East,91,4.0,4.0,85,0.00,,,0.00,Wunderground v.1.15,2013-06-02 01:25:00,
2013-06-01 21:30:00,75.1,70.3,30.08,South,181,4.0,4.0,85,0.00,,,0.00,Wunderground v.1.15,2013-06-02 01:30:00,
2013-06-01 21:35:00,75.1,70.3,30.08,ENE,63,4.0,9.0,85,0.00,,,0.00,Wunderground v.1.15,2013-06-02 01:35:00,
2013-06-01 21:40:00,75.0,70.2,30.08,ENE,71,4.0,4.0,85,0.00,,,0.00,Wunderground v.1.15,2013-06-02 01:40:00,
2013-06-01 21:45:00,75.0,70.2,30.08,West,278,3.0,9.0,85,0.00,,,0.00,Wunderground v.1.15,2013-06-02 01:45:00,
2013-06-01 21:50:00,75.0,70.2,30.08,WSW,253,3.0,9.0,85,0.00,,,0.00,Wunderground v.1.15,2013-06-02 01:50:00,
2013-06-01 21:55:00,74.9,70.1,30.08,SSW,200,3.0,9.0,85,0.00,,,0.00,Wunderground v.1.15,2013-06-02 01:55:00,
2013-06-01 22:00:00,74.9,70.1,30.08,SW,225,4.0,4.0,85,0.00,,,0.00,Wunderground v.1.15,2013-06-02 02:00:00,
2013-06-01 22:05:00,74.9,70.1,30.08,WSW,240,4.0,11.0,85,0.00,,,0.00,Wunderground v.1.15,2013-06-02 02:05:00,
2013-06-01 22:10:00,74.9,70.1,30.08,NNE,18,4.0,4.0,85,0.00,,,0.00,Wunderground v.1.15,2013-06-02 02:10:00,
2013-06-01 22:15:00,74.9,70.1,30.08,SE,127,3.0,6.0,85,0.00,,,0.00,Wunderground v.1.15,2013-06-02 02:15:00,
2013-06-01 22:20:00,74.8,70.0,30.08,NE,37,3.0,11.0,85,0.00,,,0.00,Wunderground v.1.15,2013-06-02 02:20:00,
2013-06-01 22:25:00,74.8,70.3,30.09,NNE,21,4.0,11.0,86,0.00,,,0.00,Wunderground v.1.15,2013-06-02 02:25:00,
2013-06-01 22:35:00,74.9,70.4,30.09,ENE,70,4.0,11.0,86,0.00,,,0.00,Wunderground v.1.15,2013-06-02 02:35:00,
2013-06-01 22:40:00,74.9,70.4,30.09,NNE,32,4.0,11.0,86,0.00,,,0.00,Wunderground v.1.15,2013-06-02 02:40:00,
2013-06-01 22:45:00,74.8,70.3,30.09,ENE,58,3.0,11.0,86,0.00,,,0.00,Wunderground v.1.15,2013-06-02 02:45:00,
2013-06-01 22:50:00,74.7,70.2,30.09,North,349,3.0,11.0,86,0.00,,,0.00,Wunderground v.1.15,2013-06-02 02:50:00,
2013-06-01 22:55:00,74.7,70.2,30.09,NNE,15,3.0,11.0,86,0.00,,,0.00,Wunderground v.1.15,2013-06-02 02:55:00,
2013-06-01 23:00:00,74.7,70.2,30.09,WSW,243,3.0,10.0,86,0.00,,,0.00,Wunderground v.1.15,2013-06-02 03:00:00,
2013-06-01 23:05:00,74.6,70.1,30.09,SSE,149,3.0,10.0,86,0.00,,,0.00,Wunderground v.1.15,2013-06-02 03:05:00,
2013-06-01 23:10:00,74.7,70.2,30.09,North,354,3.0,10.0,86,0.00,,,0.00,Wunderground v.1.15,2013-06-02 03:10:00,
2013-06-01 23:15:00,74.7,70.2,30.09,North,6,3.0,10.0,86,0.00,,,0.00,Wunderground v.1.15,2013-06-02 03:15:00,
2013-06-01 23:20:00,74.6,70.1,30.09,West,280,2.0,10.0,86,0.00,,,0.00,Wunderground v.1.15,2013-06-02 03:20:00,
2013-06-01 23:25:00,74.5,70.0,30.09,WSW,252,2.0,10.0,86,0.00,,,0.00,Wunderground v.1.15,2013-06-02 03:25:00,
2013-06-01 23:30:00,74.5,70.0,30.09,ENE,61,2.0,10.0,86,0.00,,,0.00,Wunderground v.1.15,2013-06-02 03:30:00,
2013-06-01 23:35:00,74.4,69.9,30.09,West,273,2.0,10.0,86,0.00,,,0.00,Wunderground v.1.15,2013-06-02 03:35:00,
2013-06-01 23:45:00,74.3,70.2,30.09,WNW,296,2.0,10.0,87,0.00,,,0.00,Wunderground v.1.15,2013-06-02 03:45:00,
2013-06-01 23:50:00,74.2,70.1,30.09,SW,229,2.0,10.0,87,0.00,,,0.00,Wunderground v.1.15,2013-06-02 03:50:00,
2013-06-01 23:55:00,74.2,70.1,30.09,SSW,201,2.0,10.0,87,0.00,,,0.00,Wunderground v.1.15,2013-06-02 03:55:00,